sensor_id;sensor_type;location;lat;lon;timestamp;P1;durP1;ratioP1;P2;durP2;ratioP2
76336;SDS011;65157;50.082;18.178;2024-02-26T00:01:44;29.10;;;13.70;;
76336;SDS011;65157;50.082;18.178;2024-02-26T00:04:11;38.30;;;17.00;;
76336;SDS011;65157;50.082;18.178;2024-02-26T00:06:38;35.40;;;15.30;;
76336;SDS011;65157;50.082;18.178;2024-02-26T00:09:04;29.80;;;13.70;;
76336;SDS011;65157;50.082;18.178;2024-02-26T00:11:30;36.30;;;15.90;;
76336;SDS011;65157;50.082;18.178;2024-02-26T00:13:56;31.70;;;13.70;;
76336;SDS011;65157;50.082;18.178;2024-02-26T00:16:23;34.20;;;14.70;;
76336;SDS011;65157;50.082;18.178;2024-02-26T00:18:49;32.80;;;13.50;;
76336;SDS011;65157;50.082;18.178;2024-02-26T00:21:15;31.80;;;13.10;;
76336;SDS011;65157;50.082;18.178;2024-02-26T00:23:41;36.60;;;16.00;;
76336;SDS011;65157;50.082;18.178;2024-02-26T00:26:07;35.30;;;16.40;;
76336;SDS011;65157;50.082;18.178;2024-02-26T00:28:33;32.00;;;15.00;;
76336;SDS011;65157;50.082;18.178;2024-02-26T00:30:59;37.40;;;16.20;;
76336;SDS011;65157;50.082;18.178;2024-02-26T00:33:25;32.00;;;16.40;;
76336;SDS011;65157;50.082;18.178;2024-02-26T00:35:51;38.60;;;15.90;;
76336;SDS011;65157;50.082;18.178;2024-02-26T00:38:17;34.30;;;15.90;;
76336;SDS011;65157;50.082;18.178;2024-02-26T00:40:43;39.50;;;16.80;;
76336;SDS011;65157;50.082;18.178;2024-02-26T00:43:09;39.50;;;16.90;;
76336;SDS011;65157;50.082;18.178;2024-02-26T00:45:35;42.10;;;18.20;;
76336;SDS011;65157;50.082;18.178;2024-02-26T00:48:01;45.50;;;19.00;;
76336;SDS011;65157;50.082;18.178;2024-02-26T00:50:27;43.50;;;18.60;;
76336;SDS011;65157;50.082;18.178;2024-02-26T00:52:52;33.70;;;15.70;;
76336;SDS011;65157;50.082;18.178;2024-02-26T00:55:18;32.50;;;14.90;;
76336;SDS011;65157;50.082;18.178;2024-02-26T00:57:44;35.00;;;16.10;;
76336;SDS011;65157;50.082;18.178;2024-02-26T01:00:10;38.50;;;17.20;;
76336;SDS011;65157;50.082;18.178;2024-02-26T01:02:36;34.50;;;15.70;;
76336;SDS011;65157;50.082;18.178;2024-02-26T01:05:03;40.60;;;15.90;;
76336;SDS011;65157;50.082;18.178;2024-02-26T01:07:29;42.30;;;17.00;;
76336;SDS011;65157;50.082;18.178;2024-02-26T01:09:55;38.90;;;17.70;;
76336;SDS011;65157;50.082;18.178;2024-02-26T01:12:20;38.30;;;16.80;;
76336;SDS011;65157;50.082;18.178;2024-02-26T01:14:46;43.30;;;18.90;;
76336;SDS011;65157;50.082;18.178;2024-02-26T01:17:13;42.40;;;16.90;;
76336;SDS011;65157;50.082;18.178;2024-02-26T01:19:39;36.70;;;17.70;;
76336;SDS011;65157;50.082;18.178;2024-02-26T01:22:04;39.30;;;18.50;;
76336;SDS011;65157;50.082;18.178;2024-02-26T01:24:30;33.60;;;16.10;;
76336;SDS011;65157;50.082;18.178;2024-02-26T01:26:56;33.00;;;16.00;;
76336;SDS011;65157;50.082;18.178;2024-02-26T01:29:22;35.00;;;15.50;;
76336;SDS011;65157;50.082;18.178;2024-02-26T01:31:48;33.90;;;15.90;;
76336;SDS011;65157;50.082;18.178;2024-02-26T01:34:14;32.30;;;15.30;;
76336;SDS011;65157;50.082;18.178;2024-02-26T01:36:40;30.80;;;15.70;;
76336;SDS011;65157;50.082;18.178;2024-02-26T01:39:05;32.40;;;15.60;;
76336;SDS011;65157;50.082;18.178;2024-02-26T01:41:32;30.70;;;15.90;;
76336;SDS011;65157;50.082;18.178;2024-02-26T01:43:57;33.60;;;16.30;;
76336;SDS011;65157;50.082;18.178;2024-02-26T01:46:23;34.50;;;14.80;;
76336;SDS011;65157;50.082;18.178;2024-02-26T01:48:49;33.90;;;15.80;;
76336;SDS011;65157;50.082;18.178;2024-02-26T01:51:15;35.00;;;15.00;;
76336;SDS011;65157;50.082;18.178;2024-02-26T01:53:42;31.50;;;15.40;;
76336;SDS011;65157;50.082;18.178;2024-02-26T01:56:09;33.00;;;16.20;;
76336;SDS011;65157;50.082;18.178;2024-02-26T01:58:35;36.00;;;16.70;;
76336;SDS011;65157;50.082;18.178;2024-02-26T02:01:01;37.20;;;15.40;;
76336;SDS011;65157;50.082;18.178;2024-02-26T02:03:28;39.30;;;17.00;;
76336;SDS011;65157;50.082;18.178;2024-02-26T02:05:56;34.50;;;17.80;;
76336;SDS011;65157;50.082;18.178;2024-02-26T02:08:22;37.90;;;18.10;;
76336;SDS011;65157;50.082;18.178;2024-02-26T02:10:49;37.00;;;17.70;;
76336;SDS011;65157;50.082;18.178;2024-02-26T02:13:15;34.10;;;16.60;;
76336;SDS011;65157;50.082;18.178;2024-02-26T02:15:41;35.50;;;18.20;;
76336;SDS011;65157;50.082;18.178;2024-02-26T02:18:07;32.80;;;16.20;;
76336;SDS011;65157;50.082;18.178;2024-02-26T02:20:34;34.40;;;17.40;;
76336;SDS011;65157;50.082;18.178;2024-02-26T02:23:01;33.30;;;15.00;;
76336;SDS011;65157;50.082;18.178;2024-02-26T02:25:27;35.80;;;16.10;;
76336;SDS011;65157;50.082;18.178;2024-02-26T02:27:54;33.00;;;16.00;;
76336;SDS011;65157;50.082;18.178;2024-02-26T02:30:21;34.30;;;16.50;;
76336;SDS011;65157;50.082;18.178;2024-02-26T02:32:50;33.10;;;14.60;;
76336;SDS011;65157;50.082;18.178;2024-02-26T02:35:17;37.90;;;16.70;;
76336;SDS011;65157;50.082;18.178;2024-02-26T02:37:43;33.50;;;15.80;;
76336;SDS011;65157;50.082;18.178;2024-02-26T02:40:08;30.40;;;15.00;;
76336;SDS011;65157;50.082;18.178;2024-02-26T02:42:34;31.60;;;14.10;;
76336;SDS011;65157;50.082;18.178;2024-02-26T02:45:01;31.50;;;14.80;;
76336;SDS011;65157;50.082;18.178;2024-02-26T02:47:27;29.90;;;15.10;;
76336;SDS011;65157;50.082;18.178;2024-02-26T02:49:53;31.20;;;15.00;;
76336;SDS011;65157;50.082;18.178;2024-02-26T02:52:19;33.10;;;14.90;;
76336;SDS011;65157;50.082;18.178;2024-02-26T02:54:45;34.50;;;15.10;;
76336;SDS011;65157;50.082;18.178;2024-02-26T02:57:11;32.90;;;13.40;;
76336;SDS011;65157;50.082;18.178;2024-02-26T02:59:37;34.10;;;14.00;;
76336;SDS011;65157;50.082;18.178;2024-02-26T03:02:03;33.70;;;15.10;;
76336;SDS011;65157;50.082;18.178;2024-02-26T03:04:29;32.20;;;14.70;;
76336;SDS011;65157;50.082;18.178;2024-02-26T03:06:55;33.70;;;14.80;;
76336;SDS011;65157;50.082;18.178;2024-02-26T03:09:21;33.00;;;14.20;;
76336;SDS011;65157;50.082;18.178;2024-02-26T03:11:47;33.20;;;14.40;;
76336;SDS011;65157;50.082;18.178;2024-02-26T03:14:13;34.10;;;15.10;;
76336;SDS011;65157;50.082;18.178;2024-02-26T03:16:39;29.80;;;12.90;;
76336;SDS011;65157;50.082;18.178;2024-02-26T03:19:05;28.70;;;14.10;;
76336;SDS011;65157;50.082;18.178;2024-02-26T03:21:31;26.50;;;13.10;;
76336;SDS011;65157;50.082;18.178;2024-02-26T03:23:57;25.60;;;12.20;;
76336;SDS011;65157;50.082;18.178;2024-02-26T03:26:22;25.20;;;12.80;;
76336;SDS011;65157;50.082;18.178;2024-02-26T03:28:48;29.80;;;13.80;;
76336;SDS011;65157;50.082;18.178;2024-02-26T03:31:14;27.40;;;13.90;;
76336;SDS011;65157;50.082;18.178;2024-02-26T03:33:40;26.30;;;13.20;;
76336;SDS011;65157;50.082;18.178;2024-02-26T03:36:06;24.00;;;12.90;;
76336;SDS011;65157;50.082;18.178;2024-02-26T03:38:32;26.00;;;12.80;;
76336;SDS011;65157;50.082;18.178;2024-02-26T03:40:58;26.40;;;12.70;;
76336;SDS011;65157;50.082;18.178;2024-02-26T03:43:24;27.70;;;13.60;;
76336;SDS011;65157;50.082;18.178;2024-02-26T03:45:50;20.10;;;11.60;;
76336;SDS011;65157;50.082;18.178;2024-02-26T03:48:16;22.80;;;11.50;;
76336;SDS011;65157;50.082;18.178;2024-02-26T03:50:42;23.70;;;11.70;;
76336;SDS011;65157;50.082;18.178;2024-02-26T03:53:08;21.10;;;12.00;;
76336;SDS011;65157;50.082;18.178;2024-02-26T03:55:34;25.40;;;11.50;;
76336;SDS011;65157;50.082;18.178;2024-02-26T03:58:00;30.40;;;14.10;;
76336;SDS011;65157;50.082;18.178;2024-02-26T04:00:26;28.10;;;14.40;;
76336;SDS011;65157;50.082;18.178;2024-02-26T04:02:52;23.60;;;13.10;;
76336;SDS011;65157;50.082;18.178;2024-02-26T04:05:18;29.60;;;13.30;;
76336;SDS011;65157;50.082;18.178;2024-02-26T04:07:44;25.50;;;11.80;;
76336;SDS011;65157;50.082;18.178;2024-02-26T04:10:10;24.50;;;12.70;;
76336;SDS011;65157;50.082;18.178;2024-02-26T04:12:40;24.90;;;12.50;;
76336;SDS011;65157;50.082;18.178;2024-02-26T04:15:07;21.80;;;10.60;;
76336;SDS011;65157;50.082;18.178;2024-02-26T04:17:33;20.80;;;11.60;;
76336;SDS011;65157;50.082;18.178;2024-02-26T04:19:59;20.40;;;10.60;;
76336;SDS011;65157;50.082;18.178;2024-02-26T04:22:25;22.80;;;11.60;;
76336;SDS011;65157;50.082;18.178;2024-02-26T04:24:51;21.50;;;11.00;;
76336;SDS011;65157;50.082;18.178;2024-02-26T04:27:17;18.20;;;10.10;;
76336;SDS011;65157;50.082;18.178;2024-02-26T04:29:43;22.70;;;12.40;;
76336;SDS011;65157;50.082;18.178;2024-02-26T04:32:09;22.20;;;11.70;;
76336;SDS011;65157;50.082;18.178;2024-02-26T04:34:35;24.20;;;12.20;;
76336;SDS011;65157;50.082;18.178;2024-02-26T04:37:01;22.20;;;12.70;;
76336;SDS011;65157;50.082;18.178;2024-02-26T04:39:26;26.10;;;15.40;;
76336;SDS011;65157;50.082;18.178;2024-02-26T04:41:52;26.10;;;14.70;;
76336;SDS011;65157;50.082;18.178;2024-02-26T04:44:18;25.00;;;14.10;;
76336;SDS011;65157;50.082;18.178;2024-02-26T04:46:44;26.90;;;13.50;;
76336;SDS011;65157;50.082;18.178;2024-02-26T04:49:10;21.00;;;12.10;;
76336;SDS011;65157;50.082;18.178;2024-02-26T04:51:36;22.60;;;12.10;;
76336;SDS011;65157;50.082;18.178;2024-02-26T04:54:02;19.70;;;11.90;;
76336;SDS011;65157;50.082;18.178;2024-02-26T04:56:28;22.50;;;12.20;;
76336;SDS011;65157;50.082;18.178;2024-02-26T04:58:54;18.60;;;10.30;;
76336;SDS011;65157;50.082;18.178;2024-02-26T05:01:20;19.80;;;10.30;;
76336;SDS011;65157;50.082;18.178;2024-02-26T05:03:46;21.00;;;11.90;;
76336;SDS011;65157;50.082;18.178;2024-02-26T05:06:12;24.10;;;11.70;;
76336;SDS011;65157;50.082;18.178;2024-02-26T05:08:38;19.30;;;10.70;;
76336;SDS011;65157;50.082;18.178;2024-02-26T05:11:04;18.70;;;10.80;;
76336;SDS011;65157;50.082;18.178;2024-02-26T05:13:30;20.50;;;11.30;;
76336;SDS011;65157;50.082;18.178;2024-02-26T05:15:56;20.50;;;11.10;;
76336;SDS011;65157;50.082;18.178;2024-02-26T05:18:22;22.50;;;11.20;;
76336;SDS011;65157;50.082;18.178;2024-02-26T05:20:48;22.40;;;11.50;;
76336;SDS011;65157;50.082;18.178;2024-02-26T05:23:14;21.90;;;12.00;;
76336;SDS011;65157;50.082;18.178;2024-02-26T05:25:40;21.50;;;12.90;;
76336;SDS011;65157;50.082;18.178;2024-02-26T05:28:06;22.40;;;11.00;;
76336;SDS011;65157;50.082;18.178;2024-02-26T05:30:32;21.70;;;11.50;;
76336;SDS011;65157;50.082;18.178;2024-02-26T05:32:57;22.90;;;11.80;;
76336;SDS011;65157;50.082;18.178;2024-02-26T05:35:24;26.90;;;11.90;;
76336;SDS011;65157;50.082;18.178;2024-02-26T05:37:50;22.40;;;11.80;;
76336;SDS011;65157;50.082;18.178;2024-02-26T05:40:16;21.50;;;12.40;;
76336;SDS011;65157;50.082;18.178;2024-02-26T05:42:42;24.40;;;11.70;;
76336;SDS011;65157;50.082;18.178;2024-02-26T05:45:08;20.70;;;12.00;;
76336;SDS011;65157;50.082;18.178;2024-02-26T05:47:34;21.50;;;11.70;;
76336;SDS011;65157;50.082;18.178;2024-02-26T05:50:01;22.20;;;12.30;;
76336;SDS011;65157;50.082;18.178;2024-02-26T05:52:28;23.20;;;11.80;;
76336;SDS011;65157;50.082;18.178;2024-02-26T05:54:53;24.70;;;12.40;;
76336;SDS011;65157;50.082;18.178;2024-02-26T05:57:19;24.30;;;11.60;;
76336;SDS011;65157;50.082;18.178;2024-02-26T05:59:45;21.70;;;11.80;;
76336;SDS011;65157;50.082;18.178;2024-02-26T06:02:11;21.30;;;9.90;;
76336;SDS011;65157;50.082;18.178;2024-02-26T06:04:37;21.40;;;10.50;;
76336;SDS011;65157;50.082;18.178;2024-02-26T06:07:03;20.60;;;10.70;;
76336;SDS011;65157;50.082;18.178;2024-02-26T06:09:29;23.50;;;12.80;;
76336;SDS011;65157;50.082;18.178;2024-02-26T06:11:55;22.00;;;10.90;;
76336;SDS011;65157;50.082;18.178;2024-02-26T06:14:21;22.90;;;11.90;;
76336;SDS011;65157;50.082;18.178;2024-02-26T06:16:47;22.50;;;11.60;;
76336;SDS011;65157;50.082;18.178;2024-02-26T06:19:13;22.70;;;11.20;;
76336;SDS011;65157;50.082;18.178;2024-02-26T06:21:39;22.20;;;11.50;;
76336;SDS011;65157;50.082;18.178;2024-02-26T06:24:05;23.60;;;11.50;;
76336;SDS011;65157;50.082;18.178;2024-02-26T06:26:31;19.50;;;11.00;;
76336;SDS011;65157;50.082;18.178;2024-02-26T06:28:56;20.30;;;10.50;;
76336;SDS011;65157;50.082;18.178;2024-02-26T06:31:22;21.00;;;10.20;;
76336;SDS011;65157;50.082;18.178;2024-02-26T06:33:49;24.50;;;10.70;;
76336;SDS011;65157;50.082;18.178;2024-02-26T06:36:18;23.10;;;11.80;;
76336;SDS011;65157;50.082;18.178;2024-02-26T06:38:44;23.30;;;12.50;;
76336;SDS011;65157;50.082;18.178;2024-02-26T06:41:10;23.70;;;12.00;;
76336;SDS011;65157;50.082;18.178;2024-02-26T06:43:35;22.60;;;12.60;;
76336;SDS011;65157;50.082;18.178;2024-02-26T06:46:01;24.20;;;11.20;;
76336;SDS011;65157;50.082;18.178;2024-02-26T06:48:27;22.90;;;11.60;;
76336;SDS011;65157;50.082;18.178;2024-02-26T06:50:53;21.70;;;11.10;;
76336;SDS011;65157;50.082;18.178;2024-02-26T06:53:19;23.40;;;12.10;;
76336;SDS011;65157;50.082;18.178;2024-02-26T06:55:45;22.80;;;12.30;;
76336;SDS011;65157;50.082;18.178;2024-02-26T06:58:11;24.40;;;12.10;;
76336;SDS011;65157;50.082;18.178;2024-02-26T07:00:37;24.80;;;12.20;;
76336;SDS011;65157;50.082;18.178;2024-02-26T07:03:03;23.60;;;11.90;;
76336;SDS011;65157;50.082;18.178;2024-02-26T07:05:29;24.70;;;12.40;;
76336;SDS011;65157;50.082;18.178;2024-02-26T07:07:55;21.40;;;12.20;;
76336;SDS011;65157;50.082;18.178;2024-02-26T07:10:22;21.70;;;11.50;;
76336;SDS011;65157;50.082;18.178;2024-02-26T07:12:48;25.10;;;12.70;;
76336;SDS011;65157;50.082;18.178;2024-02-26T07:15:14;20.60;;;11.10;;
76336;SDS011;65157;50.082;18.178;2024-02-26T07:17:40;22.60;;;13.00;;
76336;SDS011;65157;50.082;18.178;2024-02-26T07:20:06;24.30;;;13.00;;
76336;SDS011;65157;50.082;18.178;2024-02-26T07:22:33;26.20;;;13.60;;
76336;SDS011;65157;50.082;18.178;2024-02-26T07:24:58;25.70;;;13.20;;
76336;SDS011;65157;50.082;18.178;2024-02-26T07:27:24;23.50;;;13.00;;
76336;SDS011;65157;50.082;18.178;2024-02-26T07:29:50;28.20;;;13.10;;
76336;SDS011;65157;50.082;18.178;2024-02-26T07:32:17;28.60;;;14.80;;
76336;SDS011;65157;50.082;18.178;2024-02-26T07:34:43;28.80;;;13.00;;
76336;SDS011;65157;50.082;18.178;2024-02-26T07:37:09;26.20;;;15.00;;
76336;SDS011;65157;50.082;18.178;2024-02-26T07:39:36;28.10;;;15.00;;
76336;SDS011;65157;50.082;18.178;2024-02-26T07:42:02;31.70;;;15.30;;
76336;SDS011;65157;50.082;18.178;2024-02-26T07:44:28;29.10;;;13.70;;
76336;SDS011;65157;50.082;18.178;2024-02-26T07:46:54;29.00;;;16.00;;
76336;SDS011;65157;50.082;18.178;2024-02-26T07:49:20;34.70;;;16.20;;
76336;SDS011;65157;50.082;18.178;2024-02-26T07:51:46;33.20;;;17.80;;
76336;SDS011;65157;50.082;18.178;2024-02-26T07:54:12;36.50;;;17.90;;
76336;SDS011;65157;50.082;18.178;2024-02-26T07:56:38;32.30;;;16.50;;
76336;SDS011;65157;50.082;18.178;2024-02-26T07:59:04;36.60;;;19.50;;
76336;SDS011;65157;50.082;18.178;2024-02-26T08:01:29;29.30;;;16.00;;
76336;SDS011;65157;50.082;18.178;2024-02-26T08:03:56;32.90;;;17.30;;
76336;SDS011;65157;50.082;18.178;2024-02-26T08:06:22;31.70;;;16.70;;
76336;SDS011;65157;50.082;18.178;2024-02-26T08:08:48;36.70;;;17.10;;
76336;SDS011;65157;50.082;18.178;2024-02-26T08:11:14;35.10;;;18.10;;
76336;SDS011;65157;50.082;18.178;2024-02-26T08:13:40;36.50;;;18.30;;
76336;SDS011;65157;50.082;18.178;2024-02-26T08:16:06;37.00;;;17.70;;
76336;SDS011;65157;50.082;18.178;2024-02-26T08:18:32;31.90;;;16.30;;
76336;SDS011;65157;50.082;18.178;2024-02-26T08:20:58;32.60;;;18.60;;
76336;SDS011;65157;50.082;18.178;2024-02-26T08:23:24;34.00;;;17.40;;
76336;SDS011;65157;50.082;18.178;2024-02-26T08:25:50;30.70;;;15.70;;
76336;SDS011;65157;50.082;18.178;2024-02-26T08:28:15;29.00;;;14.30;;
76336;SDS011;65157;50.082;18.178;2024-02-26T08:30:42;27.60;;;14.50;;
76336;SDS011;65157;50.082;18.178;2024-02-26T08:33:09;24.70;;;13.40;;
76336;SDS011;65157;50.082;18.178;2024-02-26T08:35:36;28.30;;;13.80;;
76336;SDS011;65157;50.082;18.178;2024-02-26T08:38:02;25.50;;;12.50;;
76336;SDS011;65157;50.082;18.178;2024-02-26T08:40:28;24.70;;;12.60;;
76336;SDS011;65157;50.082;18.178;2024-02-26T08:42:55;18.80;;;11.00;;
76336;SDS011;65157;50.082;18.178;2024-02-26T08:45:21;27.80;;;13.20;;
76336;SDS011;65157;50.082;18.178;2024-02-26T08:47:47;25.20;;;13.20;;
76336;SDS011;65157;50.082;18.178;2024-02-26T08:50:13;19.50;;;10.70;;
76336;SDS011;65157;50.082;18.178;2024-02-26T08:52:39;19.70;;;10.20;;
76336;SDS011;65157;50.082;18.178;2024-02-26T08:55:06;16.50;;;9.50;;
76336;SDS011;65157;50.082;18.178;2024-02-26T08:57:32;19.00;;;9.30;;
76336;SDS011;65157;50.082;18.178;2024-02-26T08:59:58;14.20;;;8.50;;
76336;SDS011;65157;50.082;18.178;2024-02-26T09:02:25;23.10;;;10.30;;
76336;SDS011;65157;50.082;18.178;2024-02-26T09:04:50;19.10;;;9.30;;
76336;SDS011;65157;50.082;18.178;2024-02-26T09:07:16;15.90;;;8.20;;
76336;SDS011;65157;50.082;18.178;2024-02-26T09:09:42;17.00;;;9.70;;
76336;SDS011;65157;50.082;18.178;2024-02-26T09:12:08;16.00;;;9.10;;
76336;SDS011;65157;50.082;18.178;2024-02-26T09:14:34;17.90;;;10.00;;
76336;SDS011;65157;50.082;18.178;2024-02-26T09:17:00;19.80;;;11.20;;
76336;SDS011;65157;50.082;18.178;2024-02-26T09:19:26;20.30;;;10.20;;
76336;SDS011;65157;50.082;18.178;2024-02-26T09:21:53;17.70;;;9.80;;
76336;SDS011;65157;50.082;18.178;2024-02-26T09:24:19;16.30;;;9.00;;
76336;SDS011;65157;50.082;18.178;2024-02-26T09:26:45;13.40;;;8.80;;
76336;SDS011;65157;50.082;18.178;2024-02-26T09:29:10;18.40;;;10.00;;
76336;SDS011;65157;50.082;18.178;2024-02-26T09:31:37;11.10;;;6.90;;
76336;SDS011;65157;50.082;18.178;2024-02-26T09:36:29;10.70;;;5.60;;
76336;SDS011;65157;50.082;18.178;2024-02-26T09:38:55;13.70;;;7.10;;
76336;SDS011;65157;50.082;18.178;2024-02-26T09:41:21;7.30;;;4.90;;
76336;SDS011;65157;50.082;18.178;2024-02-26T09:43:47;8.60;;;5.80;;
76336;SDS011;65157;50.082;18.178;2024-02-26T09:46:14;11.80;;;6.30;;
76336;SDS011;65157;50.082;18.178;2024-02-26T09:48:41;12.70;;;7.90;;
76336;SDS011;65157;50.082;18.178;2024-02-26T09:51:09;6.20;;;4.40;;
76336;SDS011;65157;50.082;18.178;2024-02-26T09:53:36;6.60;;;4.90;;
76336;SDS011;65157;50.082;18.178;2024-02-26T09:56:06;7.80;;;4.80;;
76336;SDS011;65157;50.082;18.178;2024-02-26T09:58:32;9.00;;;6.10;;
76336;SDS011;65157;50.082;18.178;2024-02-26T10:01:00;10.10;;;6.60;;
76336;SDS011;65157;50.082;18.178;2024-02-26T10:03:29;8.90;;;6.40;;
76336;SDS011;65157;50.082;18.178;2024-02-26T10:06:04;5.40;;;3.80;;
76336;SDS011;65157;50.082;18.178;2024-02-26T10:08:30;5.50;;;4.50;;
76336;SDS011;65157;50.082;18.178;2024-02-26T10:10:56;5.10;;;3.90;;
76336;SDS011;65157;50.082;18.178;2024-02-26T10:13:22;3.80;;;3.10;;
76336;SDS011;65157;50.082;18.178;2024-02-26T10:15:48;5.50;;;3.30;;
76336;SDS011;65157;50.082;18.178;2024-02-26T10:18:14;4.70;;;4.00;;
76336;SDS011;65157;50.082;18.178;2024-02-26T10:20:40;4.90;;;3.60;;
76336;SDS011;65157;50.082;18.178;2024-02-26T10:23:06;4.60;;;3.50;;
76336;SDS011;65157;50.082;18.178;2024-02-26T10:25:35;5.00;;;3.50;;
76336;SDS011;65157;50.082;18.178;2024-02-26T10:28:01;4.90;;;3.40;;
76336;SDS011;65157;50.082;18.178;2024-02-26T10:30:27;4.20;;;3.60;;
76336;SDS011;65157;50.082;18.178;2024-02-26T10:32:54;4.70;;;3.20;;
76336;SDS011;65157;50.082;18.178;2024-02-26T10:35:20;7.00;;;3.60;;
76336;SDS011;65157;50.082;18.178;2024-02-26T10:37:46;5.60;;;3.40;;
76336;SDS011;65157;50.082;18.178;2024-02-26T10:40:13;4.60;;;3.70;;
76336;SDS011;65157;50.082;18.178;2024-02-26T10:42:40;6.40;;;3.70;;
76336;SDS011;65157;50.082;18.178;2024-02-26T10:45:08;5.00;;;3.10;;
76336;SDS011;65157;50.082;18.178;2024-02-26T10:47:35;3.20;;;2.90;;
76336;SDS011;65157;50.082;18.178;2024-02-26T10:52:30;3.60;;;3.20;;
76336;SDS011;65157;50.082;18.178;2024-02-26T10:55:02;4.00;;;3.60;;
76336;SDS011;65157;50.082;18.178;2024-02-26T10:57:39;3.80;;;3.50;;
76336;SDS011;65157;50.082;18.178;2024-02-26T11:00:06;4.30;;;3.30;;
76336;SDS011;65157;50.082;18.178;2024-02-26T11:05:00;4.90;;;4.40;;
76336;SDS011;65157;50.082;18.178;2024-02-26T11:07:31;5.40;;;4.50;;
76336;SDS011;65157;50.082;18.178;2024-02-26T11:09:59;5.00;;;4.50;;
76336;SDS011;65157;50.082;18.178;2024-02-26T11:12:27;4.70;;;3.70;;
76336;SDS011;65157;50.082;18.178;2024-02-26T11:14:54;5.10;;;4.20;;
76336;SDS011;65157;50.082;18.178;2024-02-26T11:17:22;4.40;;;2.70;;
76336;SDS011;65157;50.082;18.178;2024-02-26T11:19:51;5.00;;;2.80;;
76336;SDS011;65157;50.082;18.178;2024-02-26T11:22:20;4.50;;;3.10;;
76336;SDS011;65157;50.082;18.178;2024-02-26T11:24:46;3.80;;;3.30;;
76336;SDS011;65157;50.082;18.178;2024-02-26T11:27:12;5.10;;;3.80;;
76336;SDS011;65157;50.082;18.178;2024-02-26T11:29:43;4.70;;;3.70;;
76336;SDS011;65157;50.082;18.178;2024-02-26T11:32:12;3.90;;;3.40;;
76336;SDS011;65157;50.082;18.178;2024-02-26T11:34:38;4.20;;;3.80;;
76336;SDS011;65157;50.082;18.178;2024-02-26T11:37:11;5.20;;;4.40;;
76336;SDS011;65157;50.082;18.178;2024-02-26T11:39:44;5.70;;;3.90;;
76336;SDS011;65157;50.082;18.178;2024-02-26T11:42:14;6.40;;;4.60;;
76336;SDS011;65157;50.082;18.178;2024-02-26T11:44:42;6.30;;;4.60;;
76336;SDS011;65157;50.082;18.178;2024-02-26T11:47:12;5.10;;;3.80;;
76336;SDS011;65157;50.082;18.178;2024-02-26T11:49:45;4.80;;;4.40;;
76336;SDS011;65157;50.082;18.178;2024-02-26T11:52:12;4.10;;;3.30;;
76336;SDS011;65157;50.082;18.178;2024-02-26T11:54:40;4.00;;;3.30;;
76336;SDS011;65157;50.082;18.178;2024-02-26T11:57:29;4.20;;;3.30;;
76336;SDS011;65157;50.082;18.178;2024-02-26T11:59:57;4.80;;;3.60;;
76336;SDS011;65157;50.082;18.178;2024-02-26T12:02:46;4.00;;;3.20;;
76336;SDS011;65157;50.082;18.178;2024-02-26T12:05:16;3.80;;;3.20;;
76336;SDS011;65157;50.082;18.178;2024-02-26T12:08:06;4.30;;;3.40;;
76336;SDS011;65157;50.082;18.178;2024-02-26T12:10:37;6.00;;;3.20;;
76336;SDS011;65157;50.082;18.178;2024-02-26T12:15:39;3.60;;;3.30;;
76336;SDS011;65157;50.082;18.178;2024-02-26T12:18:10;3.60;;;3.30;;
76336;SDS011;65157;50.082;18.178;2024-02-26T12:20:41;3.90;;;3.50;;
76336;SDS011;65157;50.082;18.178;2024-02-26T12:23:07;3.70;;;3.30;;
76336;SDS011;65157;50.082;18.178;2024-02-26T12:25:33;4.20;;;3.80;;
76336;SDS011;65157;50.082;18.178;2024-02-26T12:27:59;4.10;;;3.40;;
76336;SDS011;65157;50.082;18.178;2024-02-26T12:30:26;4.30;;;3.10;;
76336;SDS011;65157;50.082;18.178;2024-02-26T12:32:52;3.60;;;3.10;;
76336;SDS011;65157;50.082;18.178;2024-02-26T12:35:24;3.90;;;3.00;;
76336;SDS011;65157;50.082;18.178;2024-02-26T12:37:50;3.00;;;2.50;;
76336;SDS011;65157;50.082;18.178;2024-02-26T12:40:19;5.30;;;3.40;;
76336;SDS011;65157;50.082;18.178;2024-02-26T12:42:46;5.50;;;3.60;;
76336;SDS011;65157;50.082;18.178;2024-02-26T12:45:13;3.50;;;3.20;;
76336;SDS011;65157;50.082;18.178;2024-02-26T12:47:39;3.50;;;3.20;;
76336;SDS011;65157;50.082;18.178;2024-02-26T12:50:08;4.40;;;4.00;;
76336;SDS011;65157;50.082;18.178;2024-02-26T12:52:37;4.80;;;4.30;;
76336;SDS011;65157;50.082;18.178;2024-02-26T12:55:22;4.90;;;3.40;;
76336;SDS011;65157;50.082;18.178;2024-02-26T12:57:48;4.00;;;3.30;;
76336;SDS011;65157;50.082;18.178;2024-02-26T13:00:17;5.90;;;4.30;;
76336;SDS011;65157;50.082;18.178;2024-02-26T13:02:47;4.30;;;3.60;;
76336;SDS011;65157;50.082;18.178;2024-02-26T13:05:14;4.00;;;3.20;;
76336;SDS011;65157;50.082;18.178;2024-02-26T13:07:41;2.70;;;2.20;;
76336;SDS011;65157;50.082;18.178;2024-02-26T13:10:08;4.00;;;3.10;;
76336;SDS011;65157;50.082;18.178;2024-02-26T13:12:34;3.40;;;2.60;;
76336;SDS011;65157;50.082;18.178;2024-02-26T13:15:03;8.50;;;5.70;;
76336;SDS011;65157;50.082;18.178;2024-02-26T13:17:32;2.20;;;2.00;;
76336;SDS011;65157;50.082;18.178;2024-02-26T13:19:58;2.00;;;1.80;;
76336;SDS011;65157;50.082;18.178;2024-02-26T13:22:25;1.60;;;1.40;;
76336;SDS011;65157;50.082;18.178;2024-02-26T13:24:55;2.10;;;1.90;;
76336;SDS011;65157;50.082;18.178;2024-02-26T13:27:25;1.90;;;1.80;;
76336;SDS011;65157;50.082;18.178;2024-02-26T13:30:08;2.00;;;1.60;;
76336;SDS011;65157;50.082;18.178;2024-02-26T13:32:36;1.50;;;1.30;;
76336;SDS011;65157;50.082;18.178;2024-02-26T13:35:12;1.90;;;1.80;;
76336;SDS011;65157;50.082;18.178;2024-02-26T13:37:39;1.80;;;1.70;;
76336;SDS011;65157;50.082;18.178;2024-02-26T13:40:06;1.80;;;1.70;;
76336;SDS011;65157;50.082;18.178;2024-02-26T13:42:33;2.30;;;1.50;;
76336;SDS011;65157;50.082;18.178;2024-02-26T13:44:59;2.50;;;2.30;;
76336;SDS011;65157;50.082;18.178;2024-02-26T13:47:25;2.30;;;2.00;;
76336;SDS011;65157;50.082;18.178;2024-02-26T13:49:50;2.80;;;2.30;;
76336;SDS011;65157;50.082;18.178;2024-02-26T13:52:16;3.10;;;2.60;;
76336;SDS011;65157;50.082;18.178;2024-02-26T13:54:42;3.30;;;3.10;;
76336;SDS011;65157;50.082;18.178;2024-02-26T13:57:08;3.90;;;3.60;;
76336;SDS011;65157;50.082;18.178;2024-02-26T13:59:34;3.50;;;3.30;;
76336;SDS011;65157;50.082;18.178;2024-02-26T14:02:00;3.20;;;2.90;;
76336;SDS011;65157;50.082;18.178;2024-02-26T14:04:26;4.10;;;3.70;;
76336;SDS011;65157;50.082;18.178;2024-02-26T14:06:53;5.00;;;3.90;;
76336;SDS011;65157;50.082;18.178;2024-02-26T14:09:19;6.20;;;5.00;;
76336;SDS011;65157;50.082;18.178;2024-02-26T14:11:45;8.10;;;6.20;;
76336;SDS011;65157;50.082;18.178;2024-02-26T14:14:11;4.00;;;3.40;;
76336;SDS011;65157;50.082;18.178;2024-02-26T14:16:37;2.70;;;2.40;;
76336;SDS011;65157;50.082;18.178;2024-02-26T14:19:03;3.80;;;3.20;;
76336;SDS011;65157;50.082;18.178;2024-02-26T14:21:30;7.10;;;4.50;;
76336;SDS011;65157;50.082;18.178;2024-02-26T14:23:56;4.50;;;3.90;;
76336;SDS011;65157;50.082;18.178;2024-02-26T14:26:22;4.00;;;3.70;;